createdAt,value
2022-12-05T06:02:50.891Z,101489.41
2022-12-05T06:07:53.662Z,101501.91
2022-12-05T06:12:57.387Z,101500.31
2022-12-05T06:17:59.631Z,101492.91
2022-12-05T06:23:01.855Z,101497.31
2022-12-05T06:28:04.118Z,101496.56
2022-12-05T06:33:06.535Z,101504.66
2022-12-05T06:38:09.556Z,101503.78
2022-12-05T06:43:12.072Z,101510.19
2022-12-05T06:48:14.544Z,101514.81
2022-12-05T06:53:17.136Z,101515.38
2022-12-05T06:58:19.350Z,101533.22
2022-12-05T07:03:21.670Z,101525.09
2022-12-05T07:08:23.895Z,101525.75
2022-12-05T07:13:26.352Z,101518.75
2022-12-05T07:18:29.048Z,101518.91
2022-12-05T07:23:31.363Z,101527.38
2022-12-05T07:28:34.501Z,101526.16
2022-12-05T07:33:37.281Z,101531.16
2022-12-05T07:38:40.840Z,101527.94
2022-12-05T07:43:43.117Z,101537.31
2022-12-05T07:48:45.789Z,101532.84
2022-12-05T07:53:48.926Z,101535.00
2022-12-05T07:58:51.212Z,101539.00
2022-12-05T08:03:55.445Z,101531.19
2022-12-05T08:08:58.066Z,101530.09
2022-12-05T08:14:00.303Z,101521.75
2022-12-05T08:19:05.763Z,101523.00
2022-12-05T08:24:08.436Z,101530.81
2022-12-05T08:29:13.681Z,101532.63
2022-12-05T08:34:20.083Z,101538.38
2022-12-05T08:39:22.467Z,101545.78
2022-12-05T08:44:25.161Z,101535.28
2022-12-05T08:49:28.202Z,101536.34
2022-12-05T08:54:30.395Z,101535.94
2022-12-05T08:59:32.684Z,101533.72
2022-12-05T09:04:34.950Z,101535.84
2022-12-05T09:09:37.401Z,101540.94
2022-12-05T09:14:39.610Z,101536.56
2022-12-05T09:19:41.812Z,101535.84
2022-12-05T09:24:44.326Z,101525.38
2022-12-05T09:29:46.623Z,101524.56
2022-12-05T09:34:48.906Z,101522.06
2022-12-05T09:39:51.131Z,101528.69
2022-12-05T09:45:05.925Z,101513.59
2022-12-05T09:50:28.525Z,101510.47
2022-12-05T09:55:48.339Z,101511.38
2022-12-05T10:00:54.947Z,101510.06
2022-12-05T10:06:12.763Z,101511.13
2022-12-05T10:11:26.641Z,101515.66
2022-12-05T10:16:37.615Z,101497.31
2022-12-05T10:21:56.764Z,101503.31
2022-12-05T10:27:08.633Z,101499.00
2022-12-05T10:32:17.029Z,101505.75
2022-12-05T10:37:23.411Z,101507.41
2022-12-05T10:42:30.163Z,101500.88
2022-12-05T10:47:33.304Z,101508.94
2022-12-05T10:52:35.658Z,101497.53
2022-12-05T10:57:37.913Z,101495.84
2022-12-05T11:02:41.518Z,101488.16
2022-12-05T11:07:43.832Z,101485.97
2022-12-05T11:12:46.243Z,101484.47
2022-12-05T11:17:49.715Z,101477.78
2022-12-05T11:22:55.070Z,101472.50
2022-12-05T11:28:01.424Z,101461.22
2022-12-05T11:33:22.024Z,101459.09
2022-12-05T11:38:29.330Z,101440.19
2022-12-05T11:43:46.742Z,101450.31
2022-12-05T11:48:57.795Z,101456.16
2022-12-05T11:54:30.602Z,101453.09
2022-12-05T12:00:02.407Z,101447.78
2022-12-05T12:05:30.385Z,101442.38
2022-12-05T12:10:54.237Z,101448.97
2022-12-05T12:16:20.820Z,101456.25
2022-12-05T12:21:23.159Z,101445.72
2022-12-05T12:26:30.189Z,101442.16
2022-12-05T12:31:50.842Z,101444.69
2022-12-05T12:37:03.480Z,101446.03
2022-12-05T12:42:08.687Z,101446.38
2022-12-05T12:47:29.083Z,101434.94
2022-12-05T12:53:00.796Z,101436.16
2022-12-05T12:58:18.249Z,101417.28
2022-12-05T13:03:25.691Z,101431.25
2022-12-05T13:09:13.013Z,101433.63
2022-12-05T13:14:20.881Z,101434.19
2022-12-05T13:19:29.142Z,101428.00
2022-12-05T13:24:31.854Z,101424.25
2022-12-05T13:29:39.989Z,101409.22
2022-12-05T13:34:49.096Z,101405.69
2022-12-05T13:40:12.200Z,101417.91
2022-12-05T13:45:20.374Z,101413.19
2022-12-05T13:50:31.604Z,101415.72
2022-12-05T13:55:37.801Z,101417.66
2022-12-05T14:00:40.573Z,101409.38
2022-12-05T14:05:51.559Z,101412.00
2022-12-05T14:10:53.741Z,101414.88
2022-12-05T14:16:24.856Z,101419.31
2022-12-05T14:21:51.155Z,101415.56
2022-12-05T14:27:22.624Z,101425.22
2022-12-05T14:32:32.699Z,101411.19
2022-12-05T14:37:38.492Z,101408.00
2022-12-05T14:43:03.347Z,101409.53
2022-12-05T14:48:14.620Z,101411.00
2022-12-05T14:53:26.086Z,101414.28
2022-12-05T14:58:41.831Z,101405.81
2022-12-05T15:04:07.787Z,101420.06
2022-12-05T15:09:36.902Z,101421.88
2022-12-05T15:15:23.385Z,101411.94
2022-12-05T15:20:25.702Z,101415.34
2022-12-05T15:25:32.854Z,101414.47
2022-12-05T15:30:39.716Z,101410.28
2022-12-05T15:35:48.362Z,101416.81
2022-12-05T15:40:50.686Z,101430.34
2022-12-05T15:46:08.181Z,101431.25
2022-12-05T15:51:10.621Z,101427.81
2022-12-05T15:56:18.113Z,101425.63
2022-12-05T16:01:25.242Z,101418.59
2022-12-05T16:06:43.427Z,101415.19
2022-12-05T16:12:00.263Z,101416.81
2022-12-05T16:17:04.601Z,101417.25
2022-12-05T16:22:12.663Z,101413.53
2022-12-05T16:27:25.293Z,101412.06
2022-12-05T16:32:27.563Z,101422.69
2022-12-05T16:37:30.378Z,101414.94
2022-12-05T16:42:32.695Z,101408.38
2022-12-05T16:47:40.816Z,101414.50
2022-12-05T16:52:43.128Z,101414.34
2022-12-05T16:57:45.317Z,101409.28
2022-12-05T17:02:47.525Z,101407.50
2022-12-05T17:07:49.851Z,101410.03
2022-12-05T17:12:52.103Z,101415.97
2022-12-05T17:17:54.784Z,101407.81
2022-12-05T17:22:57.028Z,101399.16
2022-12-05T17:27:59.269Z,101404.22
2022-12-05T17:33:01.634Z,101400.03
2022-12-05T17:38:04.579Z,101400.22
2022-12-05T17:43:07.105Z,101399.16
2022-12-05T17:48:13.474Z,101396.97
2022-12-05T17:53:18.712Z,101391.16
2022-12-05T17:58:21.069Z,101385.19
2022-12-05T18:03:23.451Z,101373.59
2022-12-05T18:08:25.734Z,101375.41
2022-12-05T18:13:37.400Z,101381.03
2022-12-05T18:18:39.806Z,101388.63
2022-12-05T18:23:42.163Z,101398.31
2022-12-05T18:28:46.888Z,101388.94
2022-12-05T18:33:49.103Z,101402.81
2022-12-05T18:38:54.491Z,101398.47
2022-12-05T18:43:56.800Z,101402.81
2022-12-05T18:49:03.356Z,101402.06
2022-12-05T18:54:06.209Z,101405.81
2022-12-05T18:59:19.550Z,101401.47
2022-12-05T19:04:21.932Z,101407.59
2022-12-05T19:09:29.952Z,101408.50
2022-12-05T19:14:33.220Z,101413.56
2022-12-05T19:19:37.297Z,101404.66
2022-12-05T19:24:39.573Z,101402.53
2022-12-05T19:29:41.850Z,101414.88
2022-12-05T19:34:46.532Z,101414.13
2022-12-05T19:39:50.130Z,101410.13
2022-12-05T19:44:52.417Z,101423.50
2022-12-05T19:49:54.692Z,101416.81
2022-12-05T19:54:57.105Z,101411.28
2022-12-05T20:00:00.192Z,101406.53
2022-12-05T20:05:04.060Z,101400.28
2022-12-05T20:10:06.690Z,101395.69
2022-12-05T20:15:15.750Z,101394.03
2022-12-05T20:20:19.009Z,101387.34
2022-12-05T20:25:21.191Z,101390.91
2022-12-05T20:30:28.244Z,101389.78
2022-12-05T20:35:38.133Z,101389.19
2022-12-05T20:40:40.389Z,101385.34
2022-12-05T20:45:42.651Z,101377.28
2022-12-05T20:50:44.904Z,101365.69
2022-12-05T20:55:47.298Z,101370.84
2022-12-05T21:00:49.503Z,101368.00
2022-12-05T21:05:52.088Z,101364.56
2022-12-05T21:10:54.503Z,101372.59
2022-12-05T21:15:57.503Z,101374.56
2022-12-05T21:21:06.696Z,101374.13
2022-12-05T21:26:14.076Z,101365.94
2022-12-05T21:31:26.876Z,101382.78
2022-12-05T21:36:31.694Z,101379.22
2022-12-05T21:41:34.702Z,101382.06
2022-12-05T21:46:37.290Z,101378.16
2022-12-05T21:51:39.955Z,101379.66
2022-12-05T21:56:43.590Z,101371.88
2022-12-05T22:01:46.645Z,101372.22
2022-12-05T22:06:48.915Z,101373.69
2022-12-05T22:11:51.175Z,101372.81
2022-12-05T22:16:53.470Z,101365.97
2022-12-05T22:21:55.663Z,101366.75
2022-12-05T22:26:57.949Z,101362.75
2022-12-05T22:32:00.277Z,101360.81
2022-12-05T22:37:02.509Z,101351.91
2022-12-05T22:42:04.805Z,101348.94
